createdAt,value
2016-05-17T00:00:29.734Z,25.08
2016-05-17T00:01:29.737Z,25.17
2016-05-17T00:02:29.756Z,25.1
2016-05-17T00:03:29.602Z,25.08
2016-05-17T00:04:29.761Z,25.08
2016-05-17T00:05:29.763Z,25.1
2016-05-17T00:06:29.844Z,25.03
2016-05-17T00:07:29.784Z,25.13
2016-05-17T00:08:29.786Z,25.05
2016-05-17T00:09:29.789Z,25.13
2016-05-17T00:10:29.652Z,25.09
2016-05-17T00:11:29.655Z,25.08
2016-05-17T00:12:29.814Z,25.13
2016-05-17T00:13:29.816Z,25.06
2016-05-17T00:14:29.850Z,25.13
2016-05-17T00:15:29.680Z,25.08
2016-05-17T00:16:29.824Z,25.09
2016-05-17T00:17:29.843Z,25.1
2016-05-17T00:18:29.845Z,25.13
2016-05-17T00:19:29.864Z,25.03
2016-05-17T00:20:29.866Z,25.09
2016-05-17T00:21:29.869Z,25.02
2016-05-17T00:22:29.872Z,25.05
2016-05-17T00:23:29.718Z,25.05
2016-05-17T00:24:29.877Z,25
2016-05-17T00:25:29.895Z,25.08
2016-05-17T00:26:29.914Z,25.05
2016-05-17T00:27:29.901Z,25.06
2016-05-17T00:28:29.763Z,25.05
2016-05-17T00:29:29.906Z,24.99
2016-05-17T00:30:29.925Z,25.02
2016-05-17T00:31:29.770Z,25.03
2016-05-17T00:32:29.946Z,25.05
2016-05-17T00:33:29.948Z,25
2016-05-17T00:34:29.794Z,24.96
2016-05-17T00:35:29.953Z,25
2016-05-17T00:36:30.597Z,24.98
2016-05-17T00:37:29.959Z,25.02
2016-05-17T00:38:29.978Z,24.91
2016-05-17T00:39:29.980Z,24.98
2016-05-17T00:40:29.983Z,24.98
2016-05-17T00:41:29.985Z,24.98
2016-05-17T00:42:29.988Z,24.96
2016-05-17T00:43:30.006Z,25
2016-05-17T00:44:29.869Z,24.99
2016-05-17T00:45:30.012Z,24.98
2016-05-17T00:46:30.014Z,24.98
2016-05-17T00:47:30.033Z,24.95
2016-05-17T00:48:30.052Z,24.99
2016-05-17T00:49:30.038Z,24.99
2016-05-17T00:50:30.040Z,25.02
2016-05-17T00:51:30.418Z,24.99
2016-05-17T00:52:30.062Z,24.9
2016-05-17T00:53:30.065Z,24.84
2016-05-17T00:54:30.067Z,24.95
2016-05-17T00:55:30.070Z,24.99
2016-05-17T00:56:30.073Z,24.95
2016-05-17T00:57:30.090Z,24.96
2016-05-17T00:58:30.093Z,24.93
2016-05-17T00:59:30.112Z,24.93
2016-05-17T01:00:29.959Z,24.95
2016-05-17T01:01:30.118Z,24.93
2016-05-17T01:02:30.120Z,24.91
2016-05-17T01:03:29.967Z,24.91
2016-05-17T01:04:29.969Z,24.93
2016-05-17T01:05:30.144Z,24.9
2016-05-17T01:06:30.739Z,24.88
2016-05-17T01:07:30.009Z,24.81
2016-05-17T01:08:30.167Z,24.95
2016-05-17T01:09:30.155Z,24.87
2016-05-17T01:10:30.189Z,24.91
2016-05-17T01:11:30.175Z,24.84
2016-05-17T01:12:30.022Z,24.98
2016-05-17T01:13:30.041Z,24.87
2016-05-17T01:14:30.199Z,24.96
2016-05-17T01:15:30.202Z,24.87
2016-05-17T01:16:30.049Z,24.84
2016-05-17T01:17:30.067Z,24.96
2016-05-17T01:18:30.069Z,24.9
2016-05-17T01:19:30.072Z,24.85
2016-05-17T01:20:29.919Z,24.88
2016-05-17T01:21:30.093Z,24.83
2016-05-17T01:22:30.236Z,24.83
2016-05-17T01:23:30.254Z,24.88
2016-05-17T01:24:30.257Z,24.84
2016-05-17T01:25:30.276Z,24.87
2016-05-17T01:26:30.279Z,24.88
2016-05-17T01:27:30.265Z,24.8
2016-05-17T01:28:30.284Z,24.9
2016-05-17T01:29:30.286Z,24.84
2016-05-17T01:30:30.289Z,24.8
2016-05-17T01:31:30.292Z,24.88
2016-05-17T01:32:30.309Z,24.87
2016-05-17T01:33:30.157Z,24.88
2016-05-17T01:34:30.315Z,24.91
2016-05-17T01:35:30.318Z,24.83
2016-05-17T01:36:30.181Z,24.91
2016-05-17T01:37:30.355Z,24.85
2016-05-17T01:38:30.186Z,24.83
2016-05-17T01:39:30.360Z,24.84
2016-05-17T01:40:30.206Z,24.81
2016-05-17T01:41:30.381Z,24.69
2016-05-17T01:42:30.369Z,24.76
2016-05-17T01:43:30.230Z,24.71
2016-05-17T01:44:30.374Z,24.87
2016-05-17T01:45:30.376Z,24.83
2016-05-17T01:46:30.379Z,24.8
2016-05-17T01:47:30.413Z,24.77
2016-05-17T01:48:30.399Z,24.83
2016-05-17T01:49:30.403Z,24.88
2016-05-17T01:50:30.421Z,24.8
2016-05-17T01:51:30.736Z,24.73
2016-05-17T01:52:30.427Z,24.81
2016-05-17T01:53:30.429Z,24.85
2016-05-17T01:54:30.119Z,24.83
2016-05-17T01:55:30.449Z,24.81
2016-05-17T01:56:30.452Z,24.78
2016-05-17T01:57:30.455Z,24.9
2016-05-17T01:58:30.302Z,24.85
2016-05-17T01:59:30.476Z,24.88
2016-05-17T02:00:30.323Z,24.83
2016-05-17T02:01:30.326Z,24.85
2016-05-17T02:02:30.484Z,24.85
2016-05-17T02:03:30.503Z,24.84
2016-05-17T02:04:30.348Z,24.83
2016-05-17T02:05:30.509Z,24.87
2016-05-17T02:06:30.198Z,24.8
2016-05-17T02:07:30.514Z,24.84
2016-05-17T02:08:30.532Z,24.85
2016-05-17T02:09:30.534Z,24.83
2016-05-17T02:10:30.537Z,24.73
2016-05-17T02:11:30.540Z,24.88
2016-05-17T02:12:30.386Z,24.87
2016-05-17T02:13:30.561Z,24.83
2016-05-17T02:14:30.564Z,24.81
2016-05-17T02:15:30.566Z,24.8
2016-05-17T02:16:30.569Z,24.87
2016-05-17T02:17:30.603Z,24.83
2016-05-17T02:18:30.605Z,24.81
2016-05-17T02:19:30.594Z,24.69
2016-05-17T02:20:30.438Z,24.71
2016-05-17T02:21:30.941Z,24.76
2016-05-17T02:22:30.444Z,24.77
2016-05-17T02:23:30.619Z,24.69
2016-05-17T02:24:30.607Z,24.78
2016-05-17T02:25:30.624Z,24.77
2016-05-17T02:26:30.627Z,24.78
2016-05-17T02:27:30.630Z,24.71
2016-05-17T02:28:30.492Z,24.62
2016-05-17T02:29:30.651Z,24.65
2016-05-17T02:30:30.498Z,24.76
2016-05-17T02:31:30.657Z,24.65
2016-05-17T02:32:30.362Z,24.64
2016-05-17T02:33:30.584Z,24.65
2016-05-17T02:34:30.664Z,24.65
2016-05-17T02:35:30.682Z,24.6
2016-05-17T02:36:30.528Z,24.62
2016-05-17T02:37:30.454Z,24.64
2016-05-17T02:38:30.706Z,24.55
2016-05-17T02:39:30.818Z,24.61
2016-05-17T02:40:30.415Z,24.52
2016-05-17T02:41:30.777Z,24.58
2016-05-17T02:42:30.561Z,24.57
2016-05-17T02:43:30.735Z,24.53
2016-05-17T02:44:30.738Z,24.53
2016-05-17T02:45:30.584Z,24.53
2016-05-17T02:46:30.759Z,24.5
2016-05-17T02:47:30.762Z,24.57
2016-05-17T02:48:30.764Z,24.6
2016-05-17T02:49:30.766Z,24.6
2016-05-17T02:50:30.769Z,24.57
2016-05-17T02:51:31.351Z,24.53
2016-05-17T02:52:30.791Z,24.52
2016-05-17T02:53:30.794Z,24.5
2016-05-17T02:54:30.796Z,24.6
2016-05-17T02:55:30.486Z,24.52
2016-05-17T02:56:30.818Z,24.52
2016-05-17T02:57:30.835Z,24.55
2016-05-17T02:58:30.823Z,24.52
2016-05-17T02:59:30.826Z,24.5
2016-05-17T03:00:30.829Z,24.47
2016-05-17T03:01:30.831Z,24.57
2016-05-17T03:02:30.834Z,24.53
2016-05-17T03:03:30.539Z,24.52
2016-05-17T03:04:30.854Z,24.47
2016-05-17T03:05:30.717Z,24.52
2016-05-17T03:06:30.719Z,24.52
2016-05-17T03:07:30.862Z,24.53
2016-05-17T03:08:30.881Z,24.47
2016-05-17T03:09:30.727Z,24.49
2016-05-17T03:10:30.901Z,24.49
2016-05-17T03:11:30.748Z,24.42
2016-05-17T03:12:30.923Z,24.46
2016-05-17T03:13:30.909Z,24.45
2016-05-17T03:14:30.912Z,24.47
2016-05-17T03:15:30.914Z,24.43
2016-05-17T03:16:30.918Z,24.52
2016-05-17T03:17:30.936Z,24.45
2016-05-17T03:18:30.939Z,24.5
2016-05-17T03:19:30.942Z,24.46
2016-05-17T03:20:30.788Z,24.46
2016-05-17T03:21:31.368Z,24.53
2016-05-17T03:22:30.965Z,24.53
2016-05-17T03:23:30.968Z,24.53
2016-05-17T03:24:30.971Z,24.52
2016-05-17T03:25:30.988Z,24.49
2016-05-17T03:26:31.101Z,24.53
2016-05-17T03:27:30.994Z,24.46
2016-05-17T03:28:31.013Z,24.52
2016-05-17T03:29:32.140Z,24.53
2016-05-17T03:30:31.002Z,24.49
2016-05-17T03:31:30.864Z,24.55
2016-05-17T03:32:30.868Z,24.53
2016-05-17T03:33:31.043Z,24.53
2016-05-17T03:34:30.873Z,24.58
2016-05-17T03:35:31.048Z,24.55
2016-05-17T03:36:31.050Z,24.49
2016-05-17T03:37:31.037Z,24.5
2016-05-17T03:38:31.055Z,24.6
2016-05-17T03:39:31.074Z,24.58
2016-05-17T03:40:31.076Z,24.47
2016-05-17T03:41:31.079Z,24.46
2016-05-17T03:42:31.081Z,24.52
2016-05-17T03:43:31.084Z,24.5
2016-05-17T03:44:31.103Z,24.47
2016-05-17T03:45:31.105Z,24.47
2016-05-17T03:46:30.795Z,24.52
2016-05-17T03:47:31.110Z,24.53
2016-05-17T03:48:31.114Z,24.47
2016-05-17T03:49:31.131Z,24.52
2016-05-17T03:50:31.133Z,24.49
2016-05-17T03:51:31.669Z,24.52
2016-05-17T03:52:31.139Z,24.45
2016-05-17T03:53:31.142Z,24.43
2016-05-17T03:54:31.160Z,24.46
2016-05-17T03:55:31.163Z,24.46
2016-05-17T03:56:31.166Z,24.52
2016-05-17T03:57:31.013Z,24.46
2016-05-17T03:58:31.171Z,24.45
2016-05-17T03:59:31.190Z,24.46
2016-05-17T04:00:31.193Z,24.52
2016-05-17T04:01:31.195Z,24.55
2016-05-17T04:02:31.041Z,24.5
2016-05-17T04:03:31.200Z,24.52
2016-05-17T04:04:31.219Z,24.47
2016-05-17T04:05:31.066Z,24.5
2016-05-17T04:06:31.834Z,24.45
2016-05-17T04:07:31.102Z,24.45
2016-05-17T04:08:31.245Z,24.5
2016-05-17T04:09:31.248Z,24.45
2016-05-17T04:10:31.266Z,24.42
2016-05-17T04:11:31.253Z,24.47
2016-05-17T04:12:31.100Z,24.43
2016-05-17T04:13:31.259Z,24.43
2016-05-17T04:14:30.964Z,24.46
2016-05-17T04:15:31.264Z,24.46
2016-05-17T04:16:31.283Z,24.42
2016-05-17T04:17:31.144Z,24.47
2016-05-17T04:18:31.303Z,24.4
2016-05-17T04:19:31.305Z,24.39
2016-05-17T04:20:31.309Z,24.4
2016-05-17T04:21:32.031Z,24.35
2016-05-17T04:22:31.174Z,24.42
2016-05-17T04:23:31.317Z,24.42
2016-05-17T04:24:31.335Z,24.49
2016-05-17T04:25:31.338Z,24.4
2016-05-17T04:26:31.340Z,24.35
2016-05-17T04:27:31.343Z,24.42
2016-05-17T04:28:31.346Z,24.42
2016-05-17T04:29:31.458Z,24.37
2016-05-17T04:30:31.210Z,24.47
2016-05-17T04:31:31.385Z,24.4
2016-05-17T04:32:31.232Z,24.39
2016-05-17T04:33:31.390Z,24.37
2016-05-17T04:34:31.409Z,24.42
2016-05-17T04:35:31.395Z,24.43
2016-05-17T04:36:31.415Z,24.34
2016-05-17T04:37:31.261Z,24.42
2016-05-17T04:38:31.420Z,24.37
2016-05-17T04:39:31.423Z,24.37
2016-05-17T04:40:31.440Z,24.37
2016-05-17T04:41:31.428Z,24.4
2016-05-17T04:42:31.289Z,24.35
2016-05-17T04:43:31.448Z,24.35
2016-05-17T04:44:31.451Z,24.43
2016-05-17T04:45:31.298Z,24.4
2016-05-17T04:46:31.457Z,24.39
2016-05-17T04:47:31.475Z,24.4
2016-05-17T04:48:31.478Z,24.39
2016-05-17T04:49:31.480Z,24.42
2016-05-17T04:50:31.499Z,24.37
2016-05-17T04:51:31.501Z,24.4
2016-05-17T04:52:31.348Z,24.37
2016-05-17T04:53:31.508Z,24.37
2016-05-17T04:54:31.541Z,24.45
2016-05-17T04:55:31.528Z,24.45
2016-05-17T04:56:31.515Z,24.4
2016-05-17T04:57:31.533Z,24.42
2016-05-17T04:58:31.536Z,24.45
2016-05-17T04:59:31.538Z,24.35
2016-05-17T05:00:31.385Z,24.34
2016-05-17T05:01:31.560Z,24.39
2016-05-17T05:02:31.563Z,24.31
2016-05-17T05:03:31.565Z,24.4
2016-05-17T05:04:31.412Z,24.37
2016-05-17T05:05:31.429Z,24.43
2016-05-17T05:06:31.588Z,24.39
2016-05-17T05:07:31.590Z,24.37
2016-05-17T05:08:31.593Z,24.28
2016-05-17T05:09:31.618Z,24.37
2016-05-17T05:10:31.679Z,24.34
2016-05-17T05:11:31.725Z,24.32
2016-05-17T05:12:31.754Z,24.28
2016-05-17T05:13:31.816Z,24.4
2016-05-17T05:14:31.848Z,24.3
2016-05-17T05:15:31.882Z,24.32
2016-05-17T05:16:31.901Z,24.3
2016-05-17T05:17:31.918Z,24.4
2016-05-17T05:18:31.937Z,24.35
2016-05-17T05:19:31.950Z,24.37
2016-05-17T05:20:31.958Z,24.31
2016-05-17T05:21:31.700Z,24.31
2016-05-17T05:22:31.989Z,24.31
2016-05-17T05:23:32.012Z,24.39
2016-05-17T05:24:32.003Z,24.34
2016-05-17T05:25:32.321Z,24.37
2016-05-17T05:26:32.029Z,24.28
2016-05-17T05:27:31.877Z,24.31
2016-05-17T05:28:32.038Z,24.34
2016-05-17T05:29:32.042Z,24.35
2016-05-17T05:30:32.061Z,24.34
2016-05-17T05:31:32.064Z,24.31
2016-05-17T05:32:32.083Z,24.32
2016-05-17T05:33:32.072Z,24.31
2016-05-17T05:34:32.074Z,24.32
2016-05-17T05:35:32.093Z,24.39
2016-05-17T05:36:32.096Z,24.31
2016-05-17T05:37:31.787Z,24.39
2016-05-17T05:38:32.102Z,24.34
2016-05-17T05:39:32.121Z,24.31
2016-05-17T05:40:31.967Z,24.31
2016-05-17T05:41:32.157Z,24.28
2016-05-17T05:42:32.129Z,24.3
2016-05-17T05:43:32.132Z,24.3
2016-05-17T05:44:32.165Z,24.31
2016-05-17T05:45:32.137Z,24.31
2016-05-17T05:46:32.155Z,24.32
2016-05-17T05:47:32.157Z,24.24
2016-05-17T05:48:32.161Z,24.37
2016-05-17T05:49:32.162Z,24.28
2016-05-17T05:50:32.056Z,24.28
2016-05-17T05:51:32.543Z,24.35
2016-05-17T05:52:32.218Z,24.35
2016-05-17T05:53:31.878Z,24.35
2016-05-17T05:54:32.209Z,24.3
2016-05-17T05:55:32.054Z,24.32
2016-05-17T05:56:32.214Z,24.32
2016-05-17T05:57:32.060Z,24.3
2016-05-17T05:58:32.062Z,24.37
2016-05-17T05:59:32.222Z,24.35
2016-05-17T06:00:32.225Z,24.35
2016-05-17T06:01:32.258Z,24.25
2016-05-17T06:03:00.433Z,24.32
2016-05-17T06:03:32.248Z,24.39
2016-05-17T06:04:32.266Z,24.31
2016-05-17T06:05:32.269Z,24.35
2016-05-17T06:06:32.380Z,24.35
2016-05-17T06:07:32.133Z,24.37
2016-05-17T06:08:32.121Z,24.32
2016-05-17T06:09:32.280Z,24.42
2016-05-17T06:10:32.298Z,24.42
2016-05-17T06:11:32.316Z,24.35
2016-05-17T06:12:32.303Z,24.35
2016-05-17T06:13:32.321Z,24.37
2016-05-17T06:14:32.324Z,24.32
2016-05-17T06:15:32.312Z,24.37
2016-05-17T06:16:32.329Z,24.42
2016-05-17T06:17:32.332Z,24.32
2016-05-17T06:18:32.351Z,24.35
2016-05-17T06:19:32.181Z,24.34
2016-05-17T06:20:32.357Z,24.31
2016-05-17T06:21:32.984Z,24.3
2016-05-17T06:22:32.361Z,24.35
2016-05-17T06:23:32.364Z,24.35
2016-05-17T06:24:32.367Z,24.35
2016-05-17T06:25:32.385Z,24.35
2016-05-17T06:26:32.388Z,24.32
2016-05-17T06:27:32.391Z,24.28
2016-05-17T06:28:32.392Z,24.4
2016-05-17T06:29:32.412Z,24.35
2016-05-17T06:30:32.398Z,24.39
2016-05-17T06:31:32.433Z,24.37
2016-05-17T06:32:32.420Z,24.31
2016-05-17T06:33:32.423Z,24.31
2016-05-17T06:34:32.425Z,24.3
2016-05-17T06:35:32.428Z,24.34
2016-05-17T06:36:32.462Z,24.4
2016-05-17T06:37:32.308Z,24.35
2016-05-17T06:38:32.452Z,24.35
2016-05-17T06:39:32.454Z,24.42
2016-05-17T06:40:32.316Z,24.34
2016-05-17T06:41:32.475Z,24.42
2016-05-17T06:42:32.478Z,24.43
2016-05-17T06:43:32.340Z,24.34
2016-05-17T06:44:32.343Z,24.37
2016-05-17T06:45:32.486Z,24.35
2016-05-17T06:46:32.504Z,24.32
2016-05-17T06:47:32.523Z,24.37
2016-05-17T06:48:32.509Z,24.47
2016-05-17T06:49:32.528Z,24.46
2016-05-17T06:50:32.531Z,24.4
2016-05-17T06:51:32.659Z,24.35
2016-05-17T06:52:32.536Z,24.39
2016-05-17T06:53:32.539Z,24.34
2016-05-17T06:54:32.542Z,24.42
2016-05-17T06:55:32.544Z,24.32
2016-05-17T06:56:32.562Z,24.32
2016-05-17T06:57:32.564Z,24.39
2016-05-17T06:58:32.412Z,24.35
2016-05-17T06:59:32.570Z,24.34
2016-05-17T07:00:32.589Z,24.35
2016-05-17T07:01:32.575Z,24.34
2016-05-17T07:02:32.594Z,24.37
2016-05-17T07:03:32.284Z,24.39
2016-05-17T07:04:32.458Z,24.46
2016-05-17T07:05:32.617Z,24.47
2016-05-17T07:06:32.824Z,24.45
2016-05-17T07:07:32.639Z,24.45
2016-05-17T07:08:32.625Z,24.49
2016-05-17T07:09:32.644Z,24.43
2016-05-17T07:10:32.646Z,24.46
2016-05-17T07:11:32.508Z,24.45
2016-05-17T07:12:32.652Z,24.45
2016-05-17T07:13:32.655Z,24.45
2016-05-17T07:14:32.516Z,24.52
2016-05-17T07:15:32.519Z,24.53
2016-05-17T07:16:32.679Z,24.57
2016-05-17T07:17:32.682Z,24.49
2016-05-17T07:18:32.684Z,24.5
2016-05-17T07:19:33.077Z,24.53
2016-05-17T07:20:32.720Z,24.65
2016-05-17T07:21:32.707Z,24.85
2016-05-17T07:22:32.710Z,24.99
2016-05-17T07:23:32.712Z,25.05
2016-05-17T07:24:32.732Z,25.2
2016-05-17T07:25:32.734Z,25.24
2016-05-17T07:26:32.737Z,25.4
2016-05-17T07:27:32.740Z,25.4
2016-05-17T07:28:32.601Z,25.51
2016-05-17T07:29:32.761Z,25.58
2016-05-17T07:30:32.763Z,25.69
2016-05-17T07:31:32.766Z,25.73
2016-05-17T07:32:32.769Z,25.76
2016-05-17T07:33:32.631Z,25.87
2016-05-17T07:34:32.805Z,25.87
2016-05-17T07:35:32.636Z,25.88
2016-05-17T07:36:33.264Z,25.87
2016-05-17T07:37:33.297Z,25.9
2016-05-17T07:38:32.816Z,25.87
2016-05-17T07:39:32.834Z,26.06
2016-05-17T07:40:32.821Z,25.98
2016-05-17T07:41:32.668Z,26.09
2016-05-17T07:42:32.842Z,26.15
2016-05-17T07:43:32.844Z,26.13
2016-05-17T07:44:32.847Z,26.09
2016-05-17T07:45:32.849Z,26.26
2016-05-17T07:46:32.869Z,26.25
2016-05-17T07:47:32.872Z,26.36
2016-05-17T07:48:32.718Z,26.4
2016-05-17T07:49:32.877Z,26.54
2016-05-17T07:50:32.582Z,26.45
2016-05-17T07:51:32.945Z,26.33
2016-05-17T07:52:32.901Z,26.39
2016-05-17T07:53:32.903Z,26.37
2016-05-17T07:54:32.906Z,26.39
2016-05-17T07:55:32.923Z,26.35
2016-05-17T07:56:32.912Z,26.4
2016-05-17T07:57:32.945Z,26.47
2016-05-17T07:58:32.932Z,26.4
2016-05-17T07:59:32.951Z,26.45
2016-05-17T08:00:32.953Z,26.47
2016-05-17T08:01:32.956Z,26.44
2016-05-17T08:02:32.818Z,26.43
2016-05-17T08:03:32.805Z,26.44
2016-05-17T08:04:32.980Z,26.45
2016-05-17T08:05:32.982Z,26.4
2016-05-17T08:06:33.126Z,26.48
2016-05-17T08:07:32.863Z,26.39
2016-05-17T08:08:33.005Z,26.43
2016-05-17T08:09:33.009Z,26.39
2016-05-17T08:10:33.011Z,26.5
2016-05-17T08:11:33.045Z,26.37
2016-05-17T08:12:33.048Z,26.32
2016-05-17T08:13:33.035Z,26.33
2016-05-17T08:14:33.053Z,26.21
2016-05-17T08:15:33.055Z,26.17
2016-05-17T08:16:33.058Z,26.18
2016-05-17T08:17:32.905Z,26.12
2016-05-17T08:18:33.063Z,26.21
2016-05-17T08:19:32.926Z,26.13
2016-05-17T08:20:33.085Z,26.1
2016-05-17T08:21:33.103Z,26.15
2016-05-17T08:22:33.107Z,26.17
2016-05-17T08:23:33.109Z,26.18
2016-05-17T08:24:33.127Z,26.12
2016-05-17T08:25:33.114Z,26.1
2016-05-17T08:26:33.132Z,26.13
2016-05-17T08:27:33.120Z,26.07
2016-05-17T08:28:33.137Z,26.15
2016-05-17T08:29:33.140Z,26.1
2016-05-17T08:30:33.175Z,26.06
2016-05-17T08:31:33.146Z,26.15
2016-05-17T08:32:33.164Z,26.1
2016-05-17T08:33:33.011Z,26.09
2016-05-17T08:34:33.014Z,26.09
2016-05-17T08:35:33.189Z,25.98
2016-05-17T08:36:33.862Z,26.02
2016-05-17T08:37:33.287Z,25.98
2016-05-17T08:38:33.212Z,25.88
2016-05-17T08:39:33.214Z,25.95
2016-05-17T08:40:33.217Z,25.9
2016-05-17T08:41:33.064Z,25.87
2016-05-17T08:42:33.238Z,25.98
2016-05-17T08:43:33.256Z,26.01
2016-05-17T08:44:33.102Z,25.98
2016-05-17T08:45:33.261Z,25.92
2016-05-17T08:46:33.264Z,25.88
2016-05-17T08:47:33.267Z,25.91
2016-05-17T08:48:33.285Z,25.9
2016-05-17T08:49:33.272Z,25.88
2016-05-17T08:50:33.290Z,25.88
2016-05-17T08:51:33.152Z,25.79
2016-05-17T08:52:33.155Z,25.73
2016-05-17T08:53:33.315Z,25.79
2016-05-17T08:54:33.318Z,25.69
2016-05-17T08:55:33.335Z,25.69
2016-05-17T08:56:33.166Z,25.57
2016-05-17T08:57:33.341Z,25.65
2016-05-17T08:58:33.343Z,25.65
2016-05-17T08:59:33.346Z,25.57
2016-05-17T09:00:33.209Z,25.65
2016-05-17T09:01:33.211Z,25.58
2016-05-17T09:02:33.214Z,25.65
2016-05-17T09:03:33.231Z,25.62
2016-05-17T09:04:33.234Z,25.6
2016-05-17T09:05:33.394Z,25.61
2016-05-17T09:06:33.536Z,25.61
2016-05-17T09:07:33.430Z,25.57
2016-05-17T09:08:33.105Z,25.7
2016-05-17T09:09:33.451Z,25.72
2016-05-17T09:10:33.439Z,25.76
2016-05-17T09:11:33.425Z,25.76
2016-05-17T09:12:33.444Z,25.77
2016-05-17T09:13:36.493Z,25.77
2016-05-17T09:14:33.450Z,25.72
2016-05-17T09:15:33.452Z,25.83
2016-05-17T09:16:33.470Z,25.77
2016-05-17T09:17:33.472Z,25.79
2016-05-17T09:18:33.475Z,25.82
2016-05-17T09:19:33.477Z,25.77
2016-05-17T09:20:33.496Z,25.73
2016-05-17T09:21:33.358Z,25.79
2016-05-17T09:22:33.518Z,25.73
2016-05-17T09:23:33.568Z,25.82
2016-05-17T09:24:33.538Z,25.8
2016-05-17T09:25:33.541Z,25.7
2016-05-17T09:26:33.544Z,25.7
2016-05-17T09:27:33.390Z,25.57
2016-05-17T09:28:33.534Z,25.5
2016-05-17T09:29:33.552Z,25.46
2016-05-17T09:30:33.414Z,25.46
2016-05-17T09:31:33.573Z,25.47
2016-05-17T09:32:33.420Z,25.43
2016-05-17T09:33:33.595Z,25.46
2016-05-17T09:34:33.597Z,25.38
2016-05-17T09:35:33.600Z,25.36
2016-05-17T09:36:33.618Z,25.4
2016-05-17T09:37:33.901Z,25.36
2016-05-17T09:38:33.623Z,25.39
2016-05-17T09:39:33.626Z,25.38
2016-05-17T09:40:33.644Z,25.39
2016-05-17T09:41:33.647Z,25.5
2016-05-17T09:42:33.494Z,25.51
2016-05-17T09:43:33.652Z,25.61
2016-05-17T09:44:33.670Z,25.45
2016-05-17T09:45:33.688Z,25.52
2016-05-17T09:46:33.675Z,25.6
2016-05-17T09:47:33.678Z,25.57
2016-05-17T09:48:33.680Z,25.52
2016-05-17T09:49:33.683Z,25.62
2016-05-17T09:50:33.702Z,25.58
2016-05-17T09:51:33.564Z,25.54
2016-05-17T09:52:33.567Z,25.54
2016-05-17T09:53:33.727Z,25.6
2016-05-17T09:54:33.743Z,25.54
2016-05-17T09:55:33.732Z,25.52
2016-05-17T09:56:33.735Z,25.45
2016-05-17T09:57:33.737Z,25.5
2016-05-17T09:58:33.755Z,25.61
2016-05-17T09:59:33.757Z,25.47
2016-05-17T10:00:33.604Z,25.54
2016-05-17T10:01:33.623Z,25.45
2016-05-17T10:02:33.781Z,25.5
2016-05-17T10:03:33.784Z,25.6
2016-05-17T10:04:33.787Z,25.52
2016-05-17T10:05:33.805Z,25.54
2016-05-17T10:06:33.886Z,25.54
2016-05-17T10:07:33.826Z,25.5
2016-05-17T10:08:33.814Z,25.45
2016-05-17T10:09:33.675Z,25.5
2016-05-17T10:10:33.834Z,25.46
2016-05-17T10:11:33.836Z,25.54
2016-05-17T10:12:33.840Z,25.5
2016-05-17T10:13:33.858Z,25.51
2016-05-17T10:14:33.876Z,25.46
2016-05-17T10:15:33.708Z,25.43
2016-05-17T10:16:33.881Z,25.47
2016-05-17T10:17:33.900Z,25.51
2016-05-17T10:18:33.731Z,25.5
2016-05-17T10:19:33.749Z,25.47
2016-05-17T10:20:33.908Z,25.46
2016-05-17T10:21:33.927Z,25.47
2016-05-17T10:22:34.069Z,25.57
2016-05-17T10:23:33.932Z,25.47
2016-05-17T10:24:33.777Z,25.5
2016-05-17T10:25:33.938Z,25.43
2016-05-17T10:26:33.940Z,25.51
2016-05-17T10:27:33.801Z,25.45
2016-05-17T10:28:33.961Z,25.45
2016-05-17T10:29:33.963Z,25.46
2016-05-17T10:30:34.028Z,25.46
2016-05-17T10:31:33.985Z,25.39
2016-05-17T10:32:33.987Z,25.39
2016-05-17T10:33:34.021Z,25.4
2016-05-17T10:34:33.852Z,25.4
2016-05-17T10:35:34.011Z,25.36
2016-05-17T10:36:34.669Z,25.4
2016-05-17T10:37:34.032Z,25.4
2016-05-17T10:38:34.034Z,25.4
2016-05-17T10:39:33.897Z,25.39
2016-05-17T10:40:33.900Z,25.39
2016-05-17T10:41:33.903Z,25.38
2016-05-17T10:42:33.905Z,25.45
2016-05-17T10:43:33.908Z,25.46
2016-05-17T10:44:34.082Z,25.46
2016-05-17T10:45:34.084Z,25.43
2016-05-17T10:46:34.103Z,25.42
2016-05-17T10:47:34.090Z,25.43
2016-05-17T10:48:34.108Z,25.43
2016-05-17T10:49:34.127Z,25.5
2016-05-17T10:50:34.114Z,25.45
2016-05-17T10:51:34.133Z,25.5
2016-05-17T10:52:34.088Z,25.52
2016-05-17T10:53:34.153Z,25.47
2016-05-17T10:54:34.155Z,25.5
2016-05-17T10:55:34.158Z,25.55
2016-05-17T10:56:34.161Z,25.54
2016-05-17T10:57:34.163Z,25.62
2016-05-17T10:58:34.166Z,25.58
2016-05-17T10:59:34.185Z,25.62
2016-05-17T11:00:34.188Z,25.62
2016-05-17T11:01:34.190Z,25.64
2016-05-17T11:02:34.193Z,25.62
2016-05-17T11:03:34.211Z,25.61
2016-05-17T11:04:34.214Z,25.6
2016-05-17T11:05:34.060Z,25.64
2016-05-17T11:06:34.219Z,25.58
2016-05-17T11:07:34.237Z,25.52
2016-05-17T11:08:34.084Z,25.55
2016-05-17T11:09:34.243Z,25.51
2016-05-17T11:10:34.261Z,25.52
2016-05-17T11:11:34.248Z,25.43
2016-05-17T11:12:34.281Z,25.36
2016-05-17T11:13:34.284Z,25.38
2016-05-17T11:14:34.287Z,25.27
2016-05-17T11:15:34.289Z,25.27
2016-05-17T11:16:34.292Z,25.18
2016-05-17T11:17:34.155Z,25.2
2016-05-17T11:18:34.298Z,25.18
2016-05-17T11:19:34.317Z,25.08
2016-05-17T11:20:34.336Z,25.08
2016-05-17T11:21:34.024Z,25.13
2016-05-17T11:22:34.855Z,25.27
2016-05-17T11:23:34.187Z,25.2
2016-05-17T11:24:34.361Z,25.21
2016-05-17T11:25:34.364Z,25.15
2016-05-17T11:26:34.367Z,25.15
2016-05-17T11:27:34.229Z,25.05
2016-05-17T11:28:34.404Z,25.08
2016-05-17T11:29:34.374Z,25.08
2016-05-17T11:30:34.393Z,25.08
2016-05-17T11:31:34.412Z,25.13
2016-05-17T11:32:34.415Z,25.05
2016-05-17T11:33:34.417Z,24.99
2016-05-17T11:34:34.420Z,25.06
2016-05-17T11:35:34.266Z,25.14
2016-05-17T11:36:34.268Z,25
2016-05-17T11:37:34.364Z,25.02
2016-05-17T11:38:34.446Z,24.99
2016-05-17T11:39:34.448Z,25.14
2016-05-17T11:40:34.295Z,25.08
2016-05-17T11:41:34.454Z,25.03
2016-05-17T11:42:34.472Z,25.02
2016-05-17T11:43:34.506Z,24.99
2016-05-17T11:44:34.524Z,25.03
2016-05-17T11:45:34.480Z,24.98
2016-05-17T11:46:34.483Z,25
2016-05-17T11:47:34.501Z,25
2016-05-17T11:48:34.519Z,25.05
2016-05-17T11:49:34.350Z,25
2016-05-17T11:50:34.509Z,24.93
2016-05-17T11:51:34.590Z,24.99
2016-05-17T11:52:34.624Z,25.06
2016-05-17T11:53:34.392Z,25.14
2016-05-17T11:54:34.566Z,24.96
2016-05-17T11:55:34.569Z,25.05
2016-05-17T11:56:34.400Z,24.99
2016-05-17T11:57:34.559Z,25.08
2016-05-17T11:58:34.563Z,25.06
2016-05-17T11:59:34.581Z,25.06
2016-05-17T12:00:34.582Z,25.05
2016-05-17T12:01:34.585Z,25.08
2016-05-17T12:02:34.432Z,25.09
2016-05-17T12:03:34.607Z,25.23
2016-05-17T12:04:34.625Z,25.38
2016-05-17T12:05:34.769Z,25.45
2016-05-17T12:06:34.615Z,25.39
2016-05-17T12:07:34.742Z,25.46
2016-05-17T12:08:34.636Z,25.46
2016-05-17T12:09:34.482Z,25.43
2016-05-17T12:10:34.641Z,25.46
2016-05-17T12:11:34.644Z,25.43
2016-05-17T12:12:34.662Z,25.47
2016-05-17T12:13:34.509Z,25.5
2016-05-17T12:14:34.667Z,25.54
2016-05-17T12:15:34.514Z,25.5
2016-05-17T12:16:34.361Z,25.51
2016-05-17T12:17:34.675Z,25.54
2016-05-17T12:18:34.538Z,25.6
2016-05-17T12:19:34.728Z,25.57
2016-05-17T12:20:34.715Z,25.76
2016-05-17T12:21:34.717Z,25.67
2016-05-17T12:22:34.564Z,25.57
2016-05-17T12:23:34.722Z,25.61
2016-05-17T12:24:34.569Z,25.67
2016-05-17T12:25:34.744Z,25.7
2016-05-17T12:26:34.763Z,25.77
2016-05-17T12:27:34.749Z,25.75
2016-05-17T12:28:34.752Z,25.8
2016-05-17T12:29:34.614Z,25.73
2016-05-17T12:30:34.774Z,25.76
2016-05-17T12:31:34.619Z,25.73
2016-05-17T12:32:34.622Z,25.82
2016-05-17T12:33:34.797Z,25.85
2016-05-17T12:34:34.799Z,25.72
2016-05-17T12:35:34.802Z,25.8
2016-05-17T12:36:34.679Z,25.75
2016-05-17T12:37:35.167Z,25.75
2016-05-17T12:38:34.498Z,25.83
2016-05-17T12:39:34.829Z,25.72
2016-05-17T12:40:34.690Z,25.79
2016-05-17T12:41:34.678Z,25.79
2016-05-17T12:42:34.868Z,25.62
2016-05-17T12:43:34.856Z,25.51
2016-05-17T12:44:34.858Z,25.42
2016-05-17T12:45:34.876Z,25.38
2016-05-17T12:46:34.879Z,25.38
2016-05-17T12:47:34.881Z,25.39
2016-05-17T12:48:34.883Z,25.36
2016-05-17T12:49:34.902Z,25.39
2016-05-17T12:50:34.920Z,25.36
2016-05-17T12:51:34.908Z,25.43
2016-05-17T12:52:35.332Z,25.38
2016-05-17T12:53:34.928Z,25.39
2016-05-17T12:54:34.931Z,25.45
2016-05-17T12:55:34.934Z,25.45
2016-05-17T12:56:34.953Z,25.51